Terminal Aerodrome Forecast
Issued by NWS

Home | Current Version | Previous Version | Text Only | Print | Product List | Glossary On
Versions: 1 2 3 4 5 6 7 8 9 10 11 12 13
150
FTUS45 KREV 251737
TAFMMH
TAF
KMMH 251737Z 2518/2618 12006KT P6SM VCSH SCT035 BKN060
     FM252000 12008KT P6SM VCTS BKN035CB BKN060
     FM260000 29010G18KT P6SM VCSH BKN035 OVC050
     FM260400 VRB03KT P6SM SCT035 BKN060=

USA.gov is the U.S. government's official web portal to all federal, state and local government web resources and services.